KR-0460 weather

GS Heights Xi Apartments Heliports
Busan, Busan Gwang'yeogsi, South Korea

Public forecast

Using degrees Celsius for public forecast. Weather courtesy of forecast.io.

Closest aviation weather report (METAR) to GS Heights Xi Apartments Heliports

Closest report is Gimhae International Airport, 8.9 nm (16.5 km) WNW. Retrieved 2020/01/29 14:00 UTC (25 minutes ago):

RKPK 291400Z 01010KT 9999 BKN040 08/00 Q1013 RMK CIG040 SLP136 8/500 9/700

Closest aviation forecast (TAF) to GS Heights Xi Apartments Heliports

Closest forecast is Gimhae International Airport, 8.9 nm (16.5 km) WNW. Retrieved 2020/01/29 12:00 UTC (2 hours ago):

TAF RKPK 291100Z 2912/3018 33006KT 9999 BKN050 TN01/2922Z TX09/3005Z BECMG 2917/2918 SCT030